sensor_id;sensor_type;location;lat;lon;timestamp;temperature;humidity
13682;DHT22;6913;49.892;7.936;2023-03-01T00:00:00;0.00;99.90
13682;DHT22;6913;49.892;7.936;2023-03-01T00:02:28;0.00;99.90
13682;DHT22;6913;49.892;7.936;2023-03-01T00:04:55;0.00;99.90
13682;DHT22;6913;49.892;7.936;2023-03-01T00:07:22;-0.10;99.90
13682;DHT22;6913;49.892;7.936;2023-03-01T00:09:50;0.00;99.90
13682;DHT22;6913;49.892;7.936;2023-03-01T00:12:17;0.00;99.90
13682;DHT22;6913;49.892;7.936;2023-03-01T00:14:44;0.00;99.90
13682;DHT22;6913;49.892;7.936;2023-03-01T00:17:11;0.00;99.90
13682;DHT22;6913;49.892;7.936;2023-03-01T00:19:38;0.00;99.90
13682;DHT22;6913;49.892;7.936;2023-03-01T00:22:04;0.00;99.90
13682;DHT22;6913;49.892;7.936;2023-03-01T00:24:31;0.00;99.90
13682;DHT22;6913;49.892;7.936;2023-03-01T00:26:59;0.00;99.90
13682;DHT22;6913;49.892;7.936;2023-03-01T00:29:28;-0.10;99.90
13682;DHT22;6913;49.892;7.936;2023-03-01T00:31:55;-0.10;99.90
13682;DHT22;6913;49.892;7.936;2023-03-01T00:34:22;-0.20;99.90
13682;DHT22;6913;49.892;7.936;2023-03-01T00:36:48;-0.20;99.90
13682;DHT22;6913;49.892;7.936;2023-03-01T00:39:15;-0.20;99.90
13682;DHT22;6913;49.892;7.936;2023-03-01T00:41:42;-0.10;99.90
13682;DHT22;6913;49.892;7.936;2023-03-01T00:44:11;-0.10;99.90
13682;DHT22;6913;49.892;7.936;2023-03-01T00:46:38;-0.10;99.90
13682;DHT22;6913;49.892;7.936;2023-03-01T00:49:05;-0.10;99.90
13682;DHT22;6913;49.892;7.936;2023-03-01T00:51:32;-0.10;99.90
13682;DHT22;6913;49.892;7.936;2023-03-01T00:54:00;-0.10;99.90
13682;DHT22;6913;49.892;7.936;2023-03-01T00:56:28;-0.10;99.90
13682;DHT22;6913;49.892;7.936;2023-03-01T00:58:56;-0.10;99.90
13682;DHT22;6913;49.892;7.936;2023-03-01T01:01:26;-0.10;99.90
13682;DHT22;6913;49.892;7.936;2023-03-01T01:03:57;-0.10;99.90
13682;DHT22;6913;49.892;7.936;2023-03-01T01:06:26;-0.10;99.90
13682;DHT22;6913;49.892;7.936;2023-03-01T01:08:54;-0.10;99.90
13682;DHT22;6913;49.892;7.936;2023-03-01T01:11:22;-0.10;99.90
13682;DHT22;6913;49.892;7.936;2023-03-01T01:13:50;-0.20;99.90
13682;DHT22;6913;49.892;7.936;2023-03-01T01:16:18;-0.30;99.90
13682;DHT22;6913;49.892;7.936;2023-03-01T01:18:47;-0.30;99.90
13682;DHT22;6913;49.892;7.936;2023-03-01T01:21:15;-0.40;99.90
13682;DHT22;6913;49.892;7.936;2023-03-01T01:23:43;-0.30;99.90
13682;DHT22;6913;49.892;7.936;2023-03-01T01:26:13;-0.30;99.90
13682;DHT22;6913;49.892;7.936;2023-03-01T01:28:41;-0.20;99.90
13682;DHT22;6913;49.892;7.936;2023-03-01T01:31:08;-0.20;99.90
13682;DHT22;6913;49.892;7.936;2023-03-01T01:33:35;-0.20;99.90
13682;DHT22;6913;49.892;7.936;2023-03-01T01:36:05;-0.20;99.90
13682;DHT22;6913;49.892;7.936;2023-03-01T01:38:32;-0.20;99.90
13682;DHT22;6913;49.892;7.936;2023-03-01T01:40:59;-0.20;99.90
13682;DHT22;6913;49.892;7.936;2023-03-01T01:43:29;-0.10;99.90
13682;DHT22;6913;49.892;7.936;2023-03-01T01:45:58;-0.20;99.90
13682;DHT22;6913;49.892;7.936;2023-03-01T01:48:31;-0.20;99.90
13682;DHT22;6913;49.892;7.936;2023-03-01T01:51:10;-0.30;99.90
13682;DHT22;6913;49.892;7.936;2023-03-01T01:53:38;-0.40;99.90
13682;DHT22;6913;49.892;7.936;2023-03-01T01:56:08;-0.50;99.90
13682;DHT22;6913;49.892;7.936;2023-03-01T01:58:38;-0.50;99.90
13682;DHT22;6913;49.892;7.936;2023-03-01T02:01:06;-0.50;99.90
13682;DHT22;6913;49.892;7.936;2023-03-01T02:03:36;-0.50;99.90
13682;DHT22;6913;49.892;7.936;2023-03-01T02:06:12;-0.50;99.90
13682;DHT22;6913;49.892;7.936;2023-03-01T02:08:42;-0.50;99.90
13682;DHT22;6913;49.892;7.936;2023-03-01T02:11:10;-0.60;99.90
13682;DHT22;6913;49.892;7.936;2023-03-01T02:13:40;-0.60;99.90
13682;DHT22;6913;49.892;7.936;2023-03-01T02:16:09;-0.70;99.90
13682;DHT22;6913;49.892;7.936;2023-03-01T02:18:38;-0.80;99.90
13682;DHT22;6913;49.892;7.936;2023-03-01T02:21:20;-0.80;99.90
13682;DHT22;6913;49.892;7.936;2023-03-01T02:23:53;-0.90;99.90
13682;DHT22;6913;49.892;7.936;2023-03-01T02:26:27;-1.00;99.90
13682;DHT22;6913;49.892;7.936;2023-03-01T02:28:58;-1.00;99.90
13682;DHT22;6913;49.892;7.936;2023-03-01T02:31:25;-1.00;99.90
13682;DHT22;6913;49.892;7.936;2023-03-01T02:34:12;-1.10;99.90
13682;DHT22;6913;49.892;7.936;2023-03-01T02:36:43;-1.10;99.90
13682;DHT22;6913;49.892;7.936;2023-03-01T02:39:15;-1.10;99.90
13682;DHT22;6913;49.892;7.936;2023-03-01T02:41:46;-1.00;99.90
13682;DHT22;6913;49.892;7.936;2023-03-01T02:44:16;-1.00;99.90
13682;DHT22;6913;49.892;7.936;2023-03-01T02:46:44;-1.00;99.90
13682;DHT22;6913;49.892;7.936;2023-03-01T02:49:18;-0.90;99.90
13682;DHT22;6913;49.892;7.936;2023-03-01T02:51:58;-0.90;99.90
13682;DHT22;6913;49.892;7.936;2023-03-01T02:54:31;-0.90;99.90
13682;DHT22;6913;49.892;7.936;2023-03-01T02:57:01;-0.80;99.90
13682;DHT22;6913;49.892;7.936;2023-03-01T02:59:32;-0.60;99.90
13682;DHT22;6913;49.892;7.936;2023-03-01T03:02:04;-0.60;99.90
13682;DHT22;6913;49.892;7.936;2023-03-01T03:04:31;-0.50;99.90
13682;DHT22;6913;49.892;7.936;2023-03-01T03:06:58;-0.50;99.90
13682;DHT22;6913;49.892;7.936;2023-03-01T03:09:25;-0.50;99.90
13682;DHT22;6913;49.892;7.936;2023-03-01T03:11:52;-0.50;99.90
13682;DHT22;6913;49.892;7.936;2023-03-01T03:14:18;-0.50;99.90
13682;DHT22;6913;49.892;7.936;2023-03-01T03:16:49;-0.50;99.90
13682;DHT22;6913;49.892;7.936;2023-03-01T03:19:17;-0.50;99.90
13682;DHT22;6913;49.892;7.936;2023-03-01T03:21:45;-0.50;99.90
13682;DHT22;6913;49.892;7.936;2023-03-01T03:24:12;-0.50;99.90
13682;DHT22;6913;49.892;7.936;2023-03-01T03:26:39;-0.50;99.90
13682;DHT22;6913;49.892;7.936;2023-03-01T03:29:06;-0.60;99.90
13682;DHT22;6913;49.892;7.936;2023-03-01T03:31:34;-0.60;99.90
13682;DHT22;6913;49.892;7.936;2023-03-01T03:34:02;-0.60;99.90
13682;DHT22;6913;49.892;7.936;2023-03-01T03:36:29;-0.60;99.90
13682;DHT22;6913;49.892;7.936;2023-03-01T03:38:56;-0.60;99.90
13682;DHT22;6913;49.892;7.936;2023-03-01T03:41:22;-0.60;99.90
13682;DHT22;6913;49.892;7.936;2023-03-01T03:43:49;-0.70;99.90
13682;DHT22;6913;49.892;7.936;2023-03-01T03:46:16;-0.70;99.90
13682;DHT22;6913;49.892;7.936;2023-03-01T03:48:44;-0.70;99.90
13682;DHT22;6913;49.892;7.936;2023-03-01T03:51:14;-0.60;99.90
13682;DHT22;6913;49.892;7.936;2023-03-01T03:53:41;-0.60;99.90
13682;DHT22;6913;49.892;7.936;2023-03-01T03:56:08;-0.60;99.90
13682;DHT22;6913;49.892;7.936;2023-03-01T03:58:35;-0.70;99.90
13682;DHT22;6913;49.892;7.936;2023-03-01T04:01:03;-0.60;99.90
13682;DHT22;6913;49.892;7.936;2023-03-01T04:03:31;-0.60;99.90
13682;DHT22;6913;49.892;7.936;2023-03-01T04:05:59;-0.60;99.90
13682;DHT22;6913;49.892;7.936;2023-03-01T04:08:28;-0.60;99.90
13682;DHT22;6913;49.892;7.936;2023-03-01T04:10:58;-0.60;99.90
13682;DHT22;6913;49.892;7.936;2023-03-01T04:13:26;-0.50;99.90
13682;DHT22;6913;49.892;7.936;2023-03-01T04:15:53;-0.50;99.90
13682;DHT22;6913;49.892;7.936;2023-03-01T04:18:22;-0.50;99.90
13682;DHT22;6913;49.892;7.936;2023-03-01T04:20:50;-0.50;99.90
13682;DHT22;6913;49.892;7.936;2023-03-01T04:23:20;-0.50;99.90
13682;DHT22;6913;49.892;7.936;2023-03-01T04:25:51;-0.10;99.90
13682;DHT22;6913;49.892;7.936;2023-03-01T04:28:21;-0.90;99.90
13682;DHT22;6913;49.892;7.936;2023-03-01T04:30:50;-1.00;99.90
13682;DHT22;6913;49.892;7.936;2023-03-01T04:33:17;-1.20;99.90
13682;DHT22;6913;49.892;7.936;2023-03-01T04:35:44;-1.20;99.90
13682;DHT22;6913;49.892;7.936;2023-03-01T04:38:14;-1.20;99.90
13682;DHT22;6913;49.892;7.936;2023-03-01T04:40:41;-1.10;99.90
13682;DHT22;6913;49.892;7.936;2023-03-01T04:43:10;-1.10;99.90
13682;DHT22;6913;49.892;7.936;2023-03-01T04:45:37;-1.10;99.90
13682;DHT22;6913;49.892;7.936;2023-03-01T04:48:04;-1.00;99.90
13682;DHT22;6913;49.892;7.936;2023-03-01T04:50:32;-1.00;99.90
13682;DHT22;6913;49.892;7.936;2023-03-01T04:52:59;-0.90;99.90
13682;DHT22;6913;49.892;7.936;2023-03-01T04:55:26;-0.80;99.90
13682;DHT22;6913;49.892;7.936;2023-03-01T04:57:53;-0.80;99.90
13682;DHT22;6913;49.892;7.936;2023-03-01T05:00:23;-0.80;99.90
13682;DHT22;6913;49.892;7.936;2023-03-01T05:02:51;-0.80;99.90
13682;DHT22;6913;49.892;7.936;2023-03-01T05:05:24;-0.80;99.90
13682;DHT22;6913;49.892;7.936;2023-03-01T05:07:53;-0.90;99.90
13682;DHT22;6913;49.892;7.936;2023-03-01T05:10:21;-0.80;99.90
13682;DHT22;6913;49.892;7.936;2023-03-01T05:12:48;-0.90;99.90
13682;DHT22;6913;49.892;7.936;2023-03-01T05:15:15;-0.90;99.90
13682;DHT22;6913;49.892;7.936;2023-03-01T05:17:43;-0.50;99.90
13682;DHT22;6913;49.892;7.936;2023-03-01T05:20:11;-1.00;99.90
13682;DHT22;6913;49.892;7.936;2023-03-01T05:22:38;-1.00;99.90
13682;DHT22;6913;49.892;7.936;2023-03-01T05:25:06;-1.20;99.90
13682;DHT22;6913;49.892;7.936;2023-03-01T05:27:33;-1.60;99.90
13682;DHT22;6913;49.892;7.936;2023-03-01T05:30:00;-1.70;99.90
13682;DHT22;6913;49.892;7.936;2023-03-01T05:32:40;-1.60;99.90
13682;DHT22;6913;49.892;7.936;2023-03-01T05:35:08;-1.60;99.90
13682;DHT22;6913;49.892;7.936;2023-03-01T05:37:39;-1.60;99.90
13682;DHT22;6913;49.892;7.936;2023-03-01T05:40:06;-1.60;99.90
13682;DHT22;6913;49.892;7.936;2023-03-01T05:42:42;-1.50;99.90
13682;DHT22;6913;49.892;7.936;2023-03-01T05:45:09;-1.40;99.90
13682;DHT22;6913;49.892;7.936;2023-03-01T05:47:36;-1.40;99.90
13682;DHT22;6913;49.892;7.936;2023-03-01T05:50:03;-1.40;99.90
13682;DHT22;6913;49.892;7.936;2023-03-01T05:52:31;-1.30;99.90
13682;DHT22;6913;49.892;7.936;2023-03-01T05:54:58;-1.30;99.90
13682;DHT22;6913;49.892;7.936;2023-03-01T05:57:28;-1.30;99.90
13682;DHT22;6913;49.892;7.936;2023-03-01T05:59:55;-1.30;99.90
13682;DHT22;6913;49.892;7.936;2023-03-01T06:02:22;-1.40;99.90
13682;DHT22;6913;49.892;7.936;2023-03-01T06:04:49;-1.40;99.90
13682;DHT22;6913;49.892;7.936;2023-03-01T06:07:15;-1.50;99.90
13682;DHT22;6913;49.892;7.936;2023-03-01T06:09:44;-1.50;99.90
13682;DHT22;6913;49.892;7.936;2023-03-01T06:12:10;-1.40;99.90
13682;DHT22;6913;49.892;7.936;2023-03-01T06:14:37;-1.40;99.90
13682;DHT22;6913;49.892;7.936;2023-03-01T06:17:04;-1.40;99.90
13682;DHT22;6913;49.892;7.936;2023-03-01T06:19:31;-1.40;99.90
13682;DHT22;6913;49.892;7.936;2023-03-01T06:21:58;-1.40;99.90
13682;DHT22;6913;49.892;7.936;2023-03-01T06:24:25;-1.30;99.90
13682;DHT22;6913;49.892;7.936;2023-03-01T06:26:55;-1.20;99.90
13682;DHT22;6913;49.892;7.936;2023-03-01T06:29:22;-1.10;99.90
13682;DHT22;6913;49.892;7.936;2023-03-01T06:31:49;-1.00;99.90
13682;DHT22;6913;49.892;7.936;2023-03-01T06:34:16;-1.00;99.90
13682;DHT22;6913;49.892;7.936;2023-03-01T06:36:43;-1.00;99.90
13682;DHT22;6913;49.892;7.936;2023-03-01T06:39:09;-1.00;99.90
13682;DHT22;6913;49.892;7.936;2023-03-01T06:41:36;-1.00;99.90
13682;DHT22;6913;49.892;7.936;2023-03-01T06:44:04;-1.00;99.90
13682;DHT22;6913;49.892;7.936;2023-03-01T06:46:31;-1.00;99.90
13682;DHT22;6913;49.892;7.936;2023-03-01T06:48:58;-1.00;99.90
13682;DHT22;6913;49.892;7.936;2023-03-01T06:51:25;-1.00;99.90
13682;DHT22;6913;49.892;7.936;2023-03-01T06:53:52;-0.90;99.90
13682;DHT22;6913;49.892;7.936;2023-03-01T06:56:19;-0.50;99.90
13682;DHT22;6913;49.892;7.936;2023-03-01T06:58:46;-0.80;99.90
13682;DHT22;6913;49.892;7.936;2023-03-01T07:01:14;-0.70;99.90
13682;DHT22;6913;49.892;7.936;2023-03-01T07:03:41;-0.50;99.90
13682;DHT22;6913;49.892;7.936;2023-03-01T07:06:09;-0.40;99.90
13682;DHT22;6913;49.892;7.936;2023-03-01T07:08:36;-0.30;99.90
13682;DHT22;6913;49.892;7.936;2023-03-01T07:11:03;-0.20;99.90
13682;DHT22;6913;49.892;7.936;2023-03-01T07:13:31;-0.10;99.90
13682;DHT22;6913;49.892;7.936;2023-03-01T07:15:58;0.20;99.90
13682;DHT22;6913;49.892;7.936;2023-03-01T07:18:26;0.60;99.90
13682;DHT22;6913;49.892;7.936;2023-03-01T07:20:53;0.60;99.90
13682;DHT22;6913;49.892;7.936;2023-03-01T07:23:20;0.80;99.90
13682;DHT22;6913;49.892;7.936;2023-03-01T07:25:51;0.90;99.90
13682;DHT22;6913;49.892;7.936;2023-03-01T07:28:18;1.20;99.90
13682;DHT22;6913;49.892;7.936;2023-03-01T07:30:45;1.50;99.90
13682;DHT22;6913;49.892;7.936;2023-03-01T07:33:12;1.80;99.90
13682;DHT22;6913;49.892;7.936;2023-03-01T07:35:40;2.00;99.90
13682;DHT22;6913;49.892;7.936;2023-03-01T07:38:07;2.10;99.90
13682;DHT22;6913;49.892;7.936;2023-03-01T07:40:34;2.40;99.90
13682;DHT22;6913;49.892;7.936;2023-03-01T07:43:01;2.50;99.90
13682;DHT22;6913;49.892;7.936;2023-03-01T07:45:29;2.60;99.90
13682;DHT22;6913;49.892;7.936;2023-03-01T07:47:56;2.70;99.90
13682;DHT22;6913;49.892;7.936;2023-03-01T07:50:23;2.60;99.90
13682;DHT22;6913;49.892;7.936;2023-03-01T07:52:51;2.70;99.90
13682;DHT22;6913;49.892;7.936;2023-03-01T07:55:18;3.00;99.90
13682;DHT22;6913;49.892;7.936;2023-03-01T07:57:45;3.20;99.90
13682;DHT22;6913;49.892;7.936;2023-03-01T08:00:13;3.50;99.90
13682;DHT22;6913;49.892;7.936;2023-03-01T08:02:40;3.70;99.90
13682;DHT22;6913;49.892;7.936;2023-03-01T08:05:07;3.40;99.90
13682;DHT22;6913;49.892;7.936;2023-03-01T08:07:35;3.40;99.90
13682;DHT22;6913;49.892;7.936;2023-03-01T08:10:04;3.50;99.90
13682;DHT22;6913;49.892;7.936;2023-03-01T08:12:31;3.40;99.90
13682;DHT22;6913;49.892;7.936;2023-03-01T08:14:58;3.20;99.90
13682;DHT22;6913;49.892;7.936;2023-03-01T08:17:24;3.60;99.90
13682;DHT22;6913;49.892;7.936;2023-03-01T08:19:51;3.50;99.90
13682;DHT22;6913;49.892;7.936;2023-03-01T08:22:18;3.50;99.90
13682;DHT22;6913;49.892;7.936;2023-03-01T08:24:46;3.50;99.90
13682;DHT22;6913;49.892;7.936;2023-03-01T08:27:16;3.50;99.90
13682;DHT22;6913;49.892;7.936;2023-03-01T08:29:43;3.50;99.90
13682;DHT22;6913;49.892;7.936;2023-03-01T08:32:10;3.40;99.90
13682;DHT22;6913;49.892;7.936;2023-03-01T08:34:37;4.20;99.90
13682;DHT22;6913;49.892;7.936;2023-03-01T08:37:03;3.90;99.90
13682;DHT22;6913;49.892;7.936;2023-03-01T08:39:30;3.80;99.90
13682;DHT22;6913;49.892;7.936;2023-03-01T08:41:57;3.90;99.90
13682;DHT22;6913;49.892;7.936;2023-03-01T08:44:26;3.60;99.90
13682;DHT22;6913;49.892;7.936;2023-03-01T08:46:53;3.60;99.90
13682;DHT22;6913;49.892;7.936;2023-03-01T08:49:21;3.50;99.90
13682;DHT22;6913;49.892;7.936;2023-03-01T08:51:49;3.60;99.90
13682;DHT22;6913;49.892;7.936;2023-03-01T08:54:17;3.80;99.90
13682;DHT22;6913;49.892;7.936;2023-03-01T08:56:44;3.70;99.90
13682;DHT22;6913;49.892;7.936;2023-03-01T08:59:12;3.50;99.90
13682;DHT22;6913;49.892;7.936;2023-03-01T09:01:41;4.00;99.90
13682;DHT22;6913;49.892;7.936;2023-03-01T09:04:09;4.10;99.90
13682;DHT22;6913;49.892;7.936;2023-03-01T09:06:36;3.80;99.90
13682;DHT22;6913;49.892;7.936;2023-03-01T09:09:04;3.90;99.90
13682;DHT22;6913;49.892;7.936;2023-03-01T09:11:31;4.10;99.90
13682;DHT22;6913;49.892;7.936;2023-03-01T09:13:59;4.20;99.90
13682;DHT22;6913;49.892;7.936;2023-03-01T09:16:25;5.00;99.90
13682;DHT22;6913;49.892;7.936;2023-03-01T09:18:54;3.90;99.90
13682;DHT22;6913;49.892;7.936;2023-03-01T09:21:22;4.20;99.90
13682;DHT22;6913;49.892;7.936;2023-03-01T09:23:50;4.20;99.90
13682;DHT22;6913;49.892;7.936;2023-03-01T09:26:18;4.10;99.90
13682;DHT22;6913;49.892;7.936;2023-03-01T09:28:47;4.40;99.90
13682;DHT22;6913;49.892;7.936;2023-03-01T09:31:14;4.60;99.90
13682;DHT22;6913;49.892;7.936;2023-03-01T09:33:44;4.40;99.90
13682;DHT22;6913;49.892;7.936;2023-03-01T09:36:15;4.50;99.90
13682;DHT22;6913;49.892;7.936;2023-03-01T09:38:42;4.50;99.90
13682;DHT22;6913;49.892;7.936;2023-03-01T09:41:11;4.80;99.90
13682;DHT22;6913;49.892;7.936;2023-03-01T09:43:48;5.10;99.90
13682;DHT22;6913;49.892;7.936;2023-03-01T09:46:20;5.20;99.90
13682;DHT22;6913;49.892;7.936;2023-03-01T09:48:51;5.20;99.90
13682;DHT22;6913;49.892;7.936;2023-03-01T09:51:26;5.30;99.90
13682;DHT22;6913;49.892;7.936;2023-03-01T09:53:53;5.50;99.90
13682;DHT22;6913;49.892;7.936;2023-03-01T09:56:27;5.20;99.90
13682;DHT22;6913;49.892;7.936;2023-03-01T09:59:00;5.80;99.90
13682;DHT22;6913;49.892;7.936;2023-03-01T10:01:34;5.10;99.90
13682;DHT22;6913;49.892;7.936;2023-03-01T10:04:24;5.30;99.90
13682;DHT22;6913;49.892;7.936;2023-03-01T10:07:03;4.90;99.90
13682;DHT22;6913;49.892;7.936;2023-03-01T10:09:34;5.00;99.90
13682;DHT22;6913;49.892;7.936;2023-03-01T10:12:02;5.00;99.90
13682;DHT22;6913;49.892;7.936;2023-03-01T10:14:34;5.10;99.90
13682;DHT22;6913;49.892;7.936;2023-03-01T10:17:07;5.40;99.90
13682;DHT22;6913;49.892;7.936;2023-03-01T10:19:39;6.20;99.90
13682;DHT22;6913;49.892;7.936;2023-03-01T10:22:13;6.50;99.90
13682;DHT22;6913;49.892;7.936;2023-03-01T10:24:41;5.60;99.90
13682;DHT22;6913;49.892;7.936;2023-03-01T10:27:14;5.40;99.90
13682;DHT22;6913;49.892;7.936;2023-03-01T10:29:48;5.70;99.90
13682;DHT22;6913;49.892;7.936;2023-03-01T10:32:18;5.70;99.90
13682;DHT22;6913;49.892;7.936;2023-03-01T10:34:47;5.50;99.90
13682;DHT22;6913;49.892;7.936;2023-03-01T10:37:17;5.80;99.90
13682;DHT22;6913;49.892;7.936;2023-03-01T10:40:02;5.80;99.90
13682;DHT22;6913;49.892;7.936;2023-03-01T10:42:33;6.40;99.90
13682;DHT22;6913;49.892;7.936;2023-03-01T10:45:17;6.20;99.90
13682;DHT22;6913;49.892;7.936;2023-03-01T10:48:03;5.80;99.90
13682;DHT22;6913;49.892;7.936;2023-03-01T10:50:30;6.50;99.90
13682;DHT22;6913;49.892;7.936;2023-03-01T10:53:01;6.40;98.60
13682;DHT22;6913;49.892;7.936;2023-03-01T10:55:33;6.10;99.90
13682;DHT22;6913;49.892;7.936;2023-03-01T10:58:16;6.30;99.90
13682;DHT22;6913;49.892;7.936;2023-03-01T11:00:49;6.40;99.90
13682;DHT22;6913;49.892;7.936;2023-03-01T11:03:19;6.30;99.90
13682;DHT22;6913;49.892;7.936;2023-03-01T11:05:53;6.50;99.90
13682;DHT22;6913;49.892;7.936;2023-03-01T11:08:40;6.50;99.90
13682;DHT22;6913;49.892;7.936;2023-03-01T11:11:20;6.40;99.30
13682;DHT22;6913;49.892;7.936;2023-03-01T11:13:58;6.00;99.90
13682;DHT22;6913;49.892;7.936;2023-03-01T11:16:32;5.80;99.90
13682;DHT22;6913;49.892;7.936;2023-03-01T11:19:12;5.90;99.90
13682;DHT22;6913;49.892;7.936;2023-03-01T11:21:44;6.20;99.90
13682;DHT22;6913;49.892;7.936;2023-03-01T11:24:16;6.80;99.90
13682;DHT22;6913;49.892;7.936;2023-03-01T11:26:47;6.30;99.90
13682;DHT22;6913;49.892;7.936;2023-03-01T11:29:26;6.30;99.90
13682;DHT22;6913;49.892;7.936;2023-03-01T11:31:56;6.30;99.90
13682;DHT22;6913;49.892;7.936;2023-03-01T11:34:36;6.50;99.90
13682;DHT22;6913;49.892;7.936;2023-03-01T11:37:13;6.60;99.20
13682;DHT22;6913;49.892;7.936;2023-03-01T11:39:49;6.50;99.90
13682;DHT22;6913;49.892;7.936;2023-03-01T11:42:20;6.30;99.90
13682;DHT22;6913;49.892;7.936;2023-03-01T11:44:52;6.70;99.90
13682;DHT22;6913;49.892;7.936;2023-03-01T11:47:31;6.50;98.80
13682;DHT22;6913;49.892;7.936;2023-03-01T11:50:12;6.60;99.90
13682;DHT22;6913;49.892;7.936;2023-03-01T11:52:50;7.20;99.20
13682;DHT22;6913;49.892;7.936;2023-03-01T11:55:30;6.30;99.90
13682;DHT22;6913;49.892;7.936;2023-03-01T11:58:21;6.10;99.90
13682;DHT22;6913;49.892;7.936;2023-03-01T12:01:24;6.60;99.90
13682;DHT22;6913;49.892;7.936;2023-03-01T12:04:11;6.80;99.90
13682;DHT22;6913;49.892;7.936;2023-03-01T12:07:01;6.80;99.80
13682;DHT22;6913;49.892;7.936;2023-03-01T12:09:38;7.10;99.90
13682;DHT22;6913;49.892;7.936;2023-03-01T12:12:35;7.60;98.30
13682;DHT22;6913;49.892;7.936;2023-03-01T12:15:49;7.30;99.00
13682;DHT22;6913;49.892;7.936;2023-03-01T12:18:39;7.40;98.70
13682;DHT22;6913;49.892;7.936;2023-03-01T12:21:21;7.20;98.80
13682;DHT22;6913;49.892;7.936;2023-03-01T12:26:53;7.20;98.80
13682;DHT22;6913;49.892;7.936;2023-03-01T12:29:29;7.50;98.00
13682;DHT22;6913;49.892;7.936;2023-03-01T12:32:15;7.90;96.80
13682;DHT22;6913;49.892;7.936;2023-03-01T12:34:59;7.40;97.10
13682;DHT22;6913;49.892;7.936;2023-03-01T12:37:39;7.30;97.10
13682;DHT22;6913;49.892;7.936;2023-03-01T12:40:33;7.80;97.50
13682;DHT22;6913;49.892;7.936;2023-03-01T12:43:11;7.60;97.50
13682;DHT22;6913;49.892;7.936;2023-03-01T12:46:05;7.60;97.80
13682;DHT22;6913;49.892;7.936;2023-03-01T12:48:43;7.50;96.70
13682;DHT22;6913;49.892;7.936;2023-03-01T12:51:16;8.10;96.20
13682;DHT22;6913;49.892;7.936;2023-03-01T12:53:46;8.00;96.20
13682;DHT22;6913;49.892;7.936;2023-03-01T12:56:17;7.70;96.30
13682;DHT22;6913;49.892;7.936;2023-03-01T12:58:51;7.90;95.00
13682;DHT22;6913;49.892;7.936;2023-03-01T13:01:39;7.90;96.00
13682;DHT22;6913;49.892;7.936;2023-03-01T13:07:19;7.80;95.00
13682;DHT22;6913;49.892;7.936;2023-03-01T13:09:55;7.60;94.70
13682;DHT22;6913;49.892;7.936;2023-03-01T13:12:52;7.90;94.10
13682;DHT22;6913;49.892;7.936;2023-03-01T13:15:33;8.20;92.70
13682;DHT22;6913;49.892;7.936;2023-03-01T13:18:03;8.40;93.30
13682;DHT22;6913;49.892;7.936;2023-03-01T13:20:34;8.30;93.70
13682;DHT22;6913;49.892;7.936;2023-03-01T13:23:07;8.40;93.80
13682;DHT22;6913;49.892;7.936;2023-03-01T13:28:54;8.60;92.20
13682;DHT22;6913;49.892;7.936;2023-03-01T13:31:59;8.40;91.20
13682;DHT22;6913;49.892;7.936;2023-03-01T13:34:51;8.80;92.70
13682;DHT22;6913;49.892;7.936;2023-03-01T13:37:21;8.50;90.70
13682;DHT22;6913;49.892;7.936;2023-03-01T13:39:48;8.70;90.90
13682;DHT22;6913;49.892;7.936;2023-03-01T13:42:40;9.00;90.90
13682;DHT22;6913;49.892;7.936;2023-03-01T13:45:32;8.70;92.20
13682;DHT22;6913;49.892;7.936;2023-03-01T13:48:02;8.70;90.40
13682;DHT22;6913;49.892;7.936;2023-03-01T13:50:38;8.60;90.80
13682;DHT22;6913;49.892;7.936;2023-03-01T13:53:14;8.80;89.60
13682;DHT22;6913;49.892;7.936;2023-03-01T13:55:44;8.80;91.30
13682;DHT22;6913;49.892;7.936;2023-03-01T13:58:19;9.30;90.40
13682;DHT22;6913;49.892;7.936;2023-03-01T14:00:47;9.50;87.10
13682;DHT22;6913;49.892;7.936;2023-03-01T14:03:21;9.50;89.60
13682;DHT22;6913;49.892;7.936;2023-03-01T14:06:01;9.70;85.80
13682;DHT22;6913;49.892;7.936;2023-03-01T14:08:30;9.40;87.70
13682;DHT22;6913;49.892;7.936;2023-03-01T14:14:02;9.30;85.70
13682;DHT22;6913;49.892;7.936;2023-03-01T14:16:38;9.10;86.30
13682;DHT22;6913;49.892;7.936;2023-03-01T14:19:16;9.20;89.00
13682;DHT22;6913;49.892;7.936;2023-03-01T14:21:47;9.20;85.30
13682;DHT22;6913;49.892;7.936;2023-03-01T14:24:18;9.30;86.70
13682;DHT22;6913;49.892;7.936;2023-03-01T14:26:46;9.30;83.70
13682;DHT22;6913;49.892;7.936;2023-03-01T14:29:28;9.40;87.80
13682;DHT22;6913;49.892;7.936;2023-03-01T14:32:09;9.40;86.80
13682;DHT22;6913;49.892;7.936;2023-03-01T14:34:36;9.30;87.00
13682;DHT22;6913;49.892;7.936;2023-03-01T14:37:19;9.10;87.80
13682;DHT22;6913;49.892;7.936;2023-03-01T14:39:46;9.10;89.90
13682;DHT22;6913;49.892;7.936;2023-03-01T14:42:14;9.10;88.80
13682;DHT22;6913;49.892;7.936;2023-03-01T14:44:42;9.40;90.10
13682;DHT22;6913;49.892;7.936;2023-03-01T14:47:11;9.50;87.70
13682;DHT22;6913;49.892;7.936;2023-03-01T14:49:39;9.40;90.20
13682;DHT22;6913;49.892;7.936;2023-03-01T14:52:16;9.20;87.70
13682;DHT22;6913;49.892;7.936;2023-03-01T14:54:48;9.10;90.10
13682;DHT22;6913;49.892;7.936;2023-03-01T14:57:17;9.00;87.60
13682;DHT22;6913;49.892;7.936;2023-03-01T14:59:47;9.20;88.20
13682;DHT22;6913;49.892;7.936;2023-03-01T15:02:18;9.20;90.10
13682;DHT22;6913;49.892;7.936;2023-03-01T15:04:47;9.00;89.20
13682;DHT22;6913;49.892;7.936;2023-03-01T15:07:15;9.30;90.50
13682;DHT22;6913;49.892;7.936;2023-03-01T15:09:42;8.90;91.30
13682;DHT22;6913;49.892;7.936;2023-03-01T15:12:35;8.90;90.60
13682;DHT22;6913;49.892;7.936;2023-03-01T15:15:22;8.80;90.50
13682;DHT22;6913;49.892;7.936;2023-03-01T15:17:53;8.70;90.70
13682;DHT22;6913;49.892;7.936;2023-03-01T15:20:24;8.70;91.00
13682;DHT22;6913;49.892;7.936;2023-03-01T15:22:53;8.90;91.10
13682;DHT22;6913;49.892;7.936;2023-03-01T15:25:22;8.70;91.20
13682;DHT22;6913;49.892;7.936;2023-03-01T15:27:52;8.60;91.80
13682;DHT22;6913;49.892;7.936;2023-03-01T15:30:23;8.50;92.30
13682;DHT22;6913;49.892;7.936;2023-03-01T15:33:19;8.70;93.10
13682;DHT22;6913;49.892;7.936;2023-03-01T15:35:49;8.40;91.50
13682;DHT22;6913;49.892;7.936;2023-03-01T15:38:34;8.40;92.40
13682;DHT22;6913;49.892;7.936;2023-03-01T15:41:05;8.30;92.30
13682;DHT22;6913;49.892;7.936;2023-03-01T15:43:46;8.20;92.80
13682;DHT22;6913;49.892;7.936;2023-03-01T15:46:18;8.30;92.80
13682;DHT22;6913;49.892;7.936;2023-03-01T15:48:47;8.30;92.80
13682;DHT22;6913;49.892;7.936;2023-03-01T15:51:18;8.30;92.40
13682;DHT22;6913;49.892;7.936;2023-03-01T15:53:51;8.50;93.00
13682;DHT22;6913;49.892;7.936;2023-03-01T15:56:19;8.20;92.20
13682;DHT22;6913;49.892;7.936;2023-03-01T15:58:47;8.20;92.80
13682;DHT22;6913;49.892;7.936;2023-03-01T16:01:15;8.20;93.50
13682;DHT22;6913;49.892;7.936;2023-03-01T16:03:43;8.10;92.60
13682;DHT22;6913;49.892;7.936;2023-03-01T16:06:10;8.00;92.50
13682;DHT22;6913;49.892;7.936;2023-03-01T16:08:38;8.00;92.90
13682;DHT22;6913;49.892;7.936;2023-03-01T16:11:13;8.00;92.90
13682;DHT22;6913;49.892;7.936;2023-03-01T16:13:40;8.00;93.00
13682;DHT22;6913;49.892;7.936;2023-03-01T16:16:10;8.00;92.90
13682;DHT22;6913;49.892;7.936;2023-03-01T16:18:40;7.90;93.20
13682;DHT22;6913;49.892;7.936;2023-03-01T16:21:11;8.10;94.00
13682;DHT22;6913;49.892;7.936;2023-03-01T16:23:39;7.70;94.10
13682;DHT22;6913;49.892;7.936;2023-03-01T16:26:05;7.60;94.50
13682;DHT22;6913;49.892;7.936;2023-03-01T16:28:32;7.50;94.90
13682;DHT22;6913;49.892;7.936;2023-03-01T16:30:59;7.50;94.30